createdAt,value
2022-07-26T00:02:21.251Z,99051.88
2022-07-26T00:04:47.878Z,99054.78
2022-07-26T00:07:14.656Z,99054.94
2022-07-26T00:09:46.365Z,99048.94
2022-07-26T00:12:14.649Z,99048.91
2022-07-26T00:14:41.457Z,99049.28
2022-07-26T00:17:08.141Z,99046.75
2022-07-26T00:19:34.844Z,99051.38
2022-07-26T00:22:20.183Z,99052.00
2022-07-26T00:24:46.865Z,99049.47
2022-07-26T00:27:13.408Z,99049.03
2022-07-26T00:29:40.127Z,99055.63
2022-07-26T00:32:06.836Z,99050.41
2022-07-26T00:34:33.548Z,99055.00
2022-07-26T00:37:00.666Z,99052.84
2022-07-26T00:39:28.761Z,99068.28
2022-07-26T00:41:55.412Z,99064.72
2022-07-26T00:44:22.114Z,99059.53
2022-07-26T00:46:48.663Z,99066.22
2022-07-26T00:49:15.287Z,99067.38
2022-07-26T00:51:42.210Z,99062.75
2022-07-26T00:54:13.258Z,99068.81
2022-07-26T00:56:40.068Z,99066.91
2022-07-26T00:59:07.049Z,99071.66
2022-07-26T01:01:33.804Z,99070.84
2022-07-26T01:04:00.680Z,99073.13
2022-07-26T01:06:27.727Z,99075.59
2022-07-26T01:08:54.897Z,99078.31
2022-07-26T01:11:21.433Z,99075.41
2022-07-26T01:13:51.182Z,99077.72
2022-07-26T01:16:18.235Z,99084.00
2022-07-26T01:18:45.077Z,99082.38
2022-07-26T01:21:13.732Z,99086.75
2022-07-26T01:23:42.257Z,99087.81
2022-07-26T01:26:08.908Z,99083.69
2022-07-26T01:28:39.588Z,99080.78
2022-07-26T01:31:08.434Z,99084.75
2022-07-26T01:33:35.114Z,99077.88
2022-07-26T01:36:02.874Z,99077.03
2022-07-26T01:38:29.666Z,99079.31
2022-07-26T01:40:56.334Z,99078.25
2022-07-26T01:43:22.796Z,99079.88
2022-07-26T01:45:49.435Z,99084.84
2022-07-26T01:48:16.337Z,99085.88
2022-07-26T01:50:42.933Z,99093.19
2022-07-26T01:53:09.765Z,99084.59
2022-07-26T01:55:36.870Z,99096.44
2022-07-26T01:58:05.230Z,99092.13
2022-07-26T02:00:32.091Z,99100.66
2022-07-26T02:02:58.896Z,99098.38
2022-07-26T02:05:25.572Z,99103.59
2022-07-26T02:07:52.170Z,99103.16
2022-07-26T02:10:18.725Z,99107.16
2022-07-26T02:12:45.500Z,99105.69
2022-07-26T02:15:13.967Z,99095.28
2022-07-26T02:17:40.988Z,99113.84
2022-07-26T02:20:08.753Z,99104.50
2022-07-26T02:22:35.807Z,99112.00
2022-07-26T02:25:05.656Z,99105.53
2022-07-26T02:27:33.224Z,99118.25
2022-07-26T02:30:01.896Z,99113.91
2022-07-26T02:32:28.370Z,99109.19
2022-07-26T02:34:54.874Z,99119.66
2022-07-26T02:37:21.477Z,99113.16
2022-07-26T02:39:47.944Z,99122.06
2022-07-26T02:42:14.775Z,99115.06
2022-07-26T02:44:41.772Z,99122.13
2022-07-26T02:47:08.325Z,99127.28
2022-07-26T02:49:34.968Z,99124.53
2022-07-26T02:52:01.421Z,99123.69
2022-07-26T02:54:27.978Z,99125.78
2022-07-26T02:56:54.443Z,99123.63
2022-07-26T02:59:20.965Z,99125.34
2022-07-26T03:01:47.527Z,99130.94
2022-07-26T03:04:14.128Z,99130.75
2022-07-26T03:06:40.671Z,99131.59
2022-07-26T03:09:07.185Z,99131.59
2022-07-26T03:11:33.650Z,99135.31
2022-07-26T03:14:00.156Z,99131.97
2022-07-26T03:16:29.748Z,99135.56
2022-07-26T03:18:57.480Z,99144.34
2022-07-26T03:21:24.495Z,99146.41
2022-07-26T03:23:52.154Z,99149.56
2022-07-26T03:26:18.885Z,99152.09
2022-07-26T03:28:45.662Z,99153.69
2022-07-26T03:31:13.155Z,99150.72
2022-07-26T03:33:40.418Z,99148.63
2022-07-26T03:36:11.648Z,99154.03
2022-07-26T03:38:42.400Z,99153.56
2022-07-26T03:41:09.109Z,99160.25
2022-07-26T03:43:40.132Z,99157.06
2022-07-26T03:46:06.671Z,99157.06
2022-07-26T03:48:33.392Z,99157.53
2022-07-26T03:51:00.161Z,99157.53
2022-07-26T03:53:26.739Z,99157.91
2022-07-26T03:56:13.265Z,99161.69
2022-07-26T03:58:40.105Z,99159.34
2022-07-26T04:01:06.819Z,99152.47
2022-07-26T04:03:33.375Z,99156.09
2022-07-26T04:06:00.497Z,99163.78
2022-07-26T04:08:28.254Z,99159.59
2022-07-26T04:10:54.900Z,99160.69
2022-07-26T04:13:23.844Z,99150.41
2022-07-26T04:15:50.913Z,99157.78
2022-07-26T04:18:17.767Z,99168.13
2022-07-26T04:20:44.416Z,99164.38
2022-07-26T04:23:11.791Z,99172.09
2022-07-26T04:25:41.322Z,99172.28
2022-07-26T04:28:08.945Z,99164.38
2022-07-26T04:30:35.994Z,99168.56
2022-07-26T04:33:02.793Z,99165.41
2022-07-26T04:35:29.518Z,99163.97
2022-07-26T04:37:56.149Z,99166.91
2022-07-26T04:40:23.955Z,99174.84
2022-07-26T04:42:51.716Z,99172.38
2022-07-26T04:45:18.502Z,99171.34
2022-07-26T04:47:49.586Z,99182.22
2022-07-26T04:50:17.540Z,99181.63
2022-07-26T04:52:44.120Z,99176.59
2022-07-26T04:55:11.247Z,99173.31
2022-07-26T04:57:37.759Z,99170.34
2022-07-26T05:00:23.068Z,99172.88
2022-07-26T05:02:53.141Z,99180.06
2022-07-26T05:05:20.601Z,99163.53
2022-07-26T05:07:50.048Z,99172.94
2022-07-26T05:10:18.957Z,99172.38
2022-07-26T05:12:49.555Z,99175.28
2022-07-26T05:15:16.393Z,99180.50
2022-07-26T05:17:43.608Z,99170.00
2022-07-26T05:20:12.163Z,99173.16
2022-07-26T05:22:39.159Z,99171.88
2022-07-26T05:25:06.490Z,99173.59
2022-07-26T05:27:33.172Z,99181.16
2022-07-26T05:29:59.939Z,99171.72
2022-07-26T05:32:28.160Z,99175.06
2022-07-26T05:34:54.673Z,99177.41
2022-07-26T05:37:21.406Z,99180.34
2022-07-26T05:39:47.892Z,99172.84
2022-07-26T05:42:14.440Z,99168.47
2022-07-26T05:44:42.703Z,99171.56
2022-07-26T05:47:10.055Z,99176.47
2022-07-26T05:49:40.127Z,99165.16
2022-07-26T05:52:08.325Z,99161.00
2022-07-26T05:54:35.403Z,99165.47
2022-07-26T05:57:02.328Z,99165.13
2022-07-26T05:59:32.175Z,99168.94
2022-07-26T06:01:58.977Z,99176.50
2022-07-26T06:04:26.806Z,99182.84
2022-07-26T06:06:54.674Z,99180.53
2022-07-26T06:09:24.166Z,99176.38
2022-07-26T06:11:51.007Z,99175.72
2022-07-26T06:14:18.158Z,99176.22
2022-07-26T06:16:46.190Z,99174.56
2022-07-26T06:19:13.191Z,99178.28
2022-07-26T06:21:39.930Z,99182.84
2022-07-26T06:24:07.062Z,99185.44
2022-07-26T06:26:34.859Z,99192.53
2022-07-26T06:29:01.526Z,99200.13
2022-07-26T06:31:28.293Z,99195.72
2022-07-26T06:33:56.074Z,99201.19
2022-07-26T06:36:25.144Z,99198.03
2022-07-26T06:38:55.165Z,99204.72
2022-07-26T06:41:21.790Z,99213.28
2022-07-26T06:43:48.321Z,99212.22
2022-07-26T06:46:15.031Z,99216.00
2022-07-26T06:48:47.449Z,99224.50
2022-07-26T06:51:18.846Z,99224.69
2022-07-26T06:53:45.600Z,99229.25
2022-07-26T06:56:14.788Z,99226.28
2022-07-26T06:58:42.185Z,99221.47
2022-07-26T07:01:08.791Z,99220.69
2022-07-26T07:03:35.493Z,99228.75
2022-07-26T07:06:01.995Z,99234.44
2022-07-26T07:08:28.995Z,99225.78
2022-07-26T07:10:56.660Z,99218.72
2022-07-26T07:13:23.695Z,99213.47
2022-07-26T07:15:50.211Z,99217.66
2022-07-26T07:18:17.875Z,99224.56
2022-07-26T07:20:44.514Z,99227.88
2022-07-26T07:23:11.140Z,99226.84
2022-07-26T07:25:37.981Z,99229.53
2022-07-26T07:28:06.736Z,99237.66
2022-07-26T07:30:33.717Z,99242.84
2022-07-26T07:33:00.321Z,99241.19
2022-07-26T07:35:31.613Z,99248.63
2022-07-26T07:37:58.684Z,99243.19
2022-07-26T07:40:25.291Z,99250.09
2022-07-26T07:42:52.478Z,99260.72
2022-07-26T07:45:19.077Z,99259.50
2022-07-26T07:47:45.863Z,99253.16
2022-07-26T07:50:12.378Z,99261.13
2022-07-26T07:52:38.956Z,99251.16
2022-07-26T07:55:36.561Z,99262.03
2022-07-26T07:57:54.548Z,99256.00
2022-07-26T08:00:21.412Z,99254.63
2022-07-26T08:02:54.681Z,99247.94
2022-07-26T08:05:21.532Z,99245.47
2022-07-26T08:07:48.337Z,99247.16
2022-07-26T08:10:14.998Z,99247.41
2022-07-26T08:12:41.476Z,99243.53
2022-07-26T08:15:09.162Z,99234.78
2022-07-26T08:17:39.820Z,99241.69
2022-07-26T08:20:15.870Z,99237.69
2022-07-26T08:22:42.750Z,99249.00
2022-07-26T08:25:09.808Z,99247.53
2022-07-26T08:27:40.969Z,99241.47
2022-07-26T08:30:08.376Z,99245.69
2022-07-26T08:32:36.032Z,99258.25
2022-07-26T08:35:17.736Z,99256.56
2022-07-26T08:37:46.361Z,99258.44
2022-07-26T08:40:13.250Z,99258.88
2022-07-26T08:42:40.336Z,99251.91
2022-07-26T08:45:07.398Z,99251.94
2022-07-26T08:47:39.801Z,99265.13
2022-07-26T08:50:09.709Z,99264.06
2022-07-26T08:52:39.928Z,99260.72
2022-07-26T08:55:07.003Z,99256.31
2022-07-26T08:57:34.715Z,99258.16
2022-07-26T09:00:19.105Z,99254.47
2022-07-26T09:02:46.667Z,99254.78
2022-07-26T09:05:13.887Z,99256.47
2022-07-26T09:07:41.301Z,99263.63
2022-07-26T09:10:10.493Z,99256.47
2022-07-26T09:12:38.471Z,99257.53
2022-07-26T09:15:07.970Z,99256.88
2022-07-26T09:17:40.652Z,99265.47
2022-07-26T09:20:16.685Z,99266.06
2022-07-26T09:23:16.433Z,99266.69
2022-07-26T09:25:44.939Z,99271.28
2022-07-26T09:28:28.524Z,99265.44
2022-07-26T09:30:59.763Z,99264.84
2022-07-26T09:33:26.725Z,99251.38
2022-07-26T09:36:02.628Z,99260.81
2022-07-26T09:38:43.793Z,99260.88
2022-07-26T09:41:30.587Z,99266.19
2022-07-26T09:44:00.522Z,99268.44
2022-07-26T09:46:29.531Z,99272.44
2022-07-26T09:49:13.366Z,99271.81
2022-07-26T09:51:42.435Z,99280.06
2022-07-26T09:54:11.345Z,99275.53
2022-07-26T09:56:56.748Z,99287.16
2022-07-26T09:59:25.490Z,99288.88
2022-07-26T10:01:55.869Z,99283.19
2022-07-26T10:04:23.634Z,99283.59
2022-07-26T10:06:50.468Z,99285.13
2022-07-26T10:09:18.701Z,99286.34
2022-07-26T10:11:52.656Z,99287.03
2022-07-26T10:14:41.774Z,99293.31
2022-07-26T10:17:31.786Z,99270.66
2022-07-26T10:20:10.564Z,99286.34
2022-07-26T10:22:50.377Z,99282.06
2022-07-26T10:25:16.910Z,99288.50
2022-07-26T10:27:45.974Z,99285.13
2022-07-26T10:30:18.645Z,99292.50
2022-07-26T10:32:51.419Z,99278.28
2022-07-26T10:35:36.429Z,99280.75
2022-07-26T10:38:13.891Z,99275.59
2022-07-26T10:40:56.283Z,99288.09
2022-07-26T10:43:40.288Z,99280.94
2022-07-26T10:46:16.830Z,99276.78
2022-07-26T10:49:04.054Z,99287.16
2022-07-26T10:51:37.294Z,99283.59
2022-07-26T10:54:06.551Z,99285.31
2022-07-26T10:56:34.042Z,99288.34
2022-07-26T10:59:01.395Z,99281.97
2022-07-26T11:01:42.947Z,99288.28
2022-07-26T11:04:22.498Z,99295.66
2022-07-26T11:06:49.321Z,99285.66
2022-07-26T11:09:17.288Z,99291.44
2022-07-26T11:11:46.307Z,99289.59
2022-07-26T11:14:17.319Z,99289.03
2022-07-26T11:16:46.884Z,99302.75
2022-07-26T11:19:27.416Z,99298.78
2022-07-26T11:21:58.847Z,99290.72
2022-07-26T11:24:26.763Z,99286.25
2022-07-26T11:26:53.925Z,99291.78
2022-07-26T11:29:38.755Z,99292.50
2022-07-26T11:32:18.190Z,99278.31
2022-07-26T11:34:46.759Z,99282.31
2022-07-26T11:37:14.308Z,99281.25
2022-07-26T11:39:40.933Z,99276.44
2022-07-26T11:42:10.313Z,99274.06
2022-07-26T11:44:37.505Z,99281.91
2022-07-26T11:47:30.231Z,99283.03
2022-07-26T11:50:21.591Z,99284.34
2022-07-26T11:52:49.457Z,99284.16
2022-07-26T11:55:25.580Z,99282.25
2022-07-26T11:57:52.292Z,99284.75
2022-07-26T12:00:19.415Z,99286.09
2022-07-26T12:02:46.056Z,99283.75
2022-07-26T12:05:18.444Z,99291.63
2022-07-26T12:08:04.484Z,99281.38
2022-07-26T12:10:31.718Z,99282.25
2022-07-26T12:13:12.977Z,99281.53
2022-07-26T12:15:52.980Z,99280.28
2022-07-26T12:18:24.457Z,99276.06
2022-07-26T12:21:09.375Z,99267.66
2022-07-26T12:23:49.598Z,99270.03
2022-07-26T12:26:27.558Z,99265.84
2022-07-26T12:28:56.457Z,99267.78
2022-07-26T12:31:34.109Z,99264.66
2022-07-26T12:34:00.954Z,99257.13
2022-07-26T12:36:29.501Z,99265.34
2022-07-26T12:39:01.307Z,99255.44
2022-07-26T12:41:40.414Z,99261.13
2022-07-26T12:44:12.403Z,99251.69
2022-07-26T12:46:39.661Z,99246.63
2022-07-26T12:49:06.552Z,99251.25
2022-07-26T12:51:33.817Z,99252.00
2022-07-26T12:54:00.622Z,99273.25
2022-07-26T12:56:27.168Z,99293.03
2022-07-26T12:58:54.332Z,99330.31
2022-07-26T13:01:21.284Z,99326.03
2022-07-26T13:03:47.976Z,99331.34
2022-07-26T13:06:14.532Z,99327.44
2022-07-26T13:08:41.078Z,99338.38
2022-07-26T13:11:07.704Z,99336.41
2022-07-26T13:13:34.237Z,99337.97
2022-07-26T13:16:00.878Z,99339.81
2022-07-26T13:18:27.399Z,99335.59
2022-07-26T13:20:54.096Z,99326.75
2022-07-26T13:23:21.621Z,99328.81
2022-07-26T13:25:51.404Z,99321.09
2022-07-26T13:28:18.320Z,99323.03
2022-07-26T13:30:45.103Z,99311.81
2022-07-26T13:33:12.238Z,99310.50
2022-07-26T13:35:41.433Z,99315.41
2022-07-26T13:38:08.373Z,99307.50
2022-07-26T13:40:34.913Z,99311.72
2022-07-26T13:43:01.540Z,99299.16
2022-07-26T13:45:29.195Z,99307.31
2022-07-26T13:47:59.219Z,99305.06
2022-07-26T13:50:27.217Z,99305.59
2022-07-26T13:52:56.158Z,99296.19
2022-07-26T13:55:23.093Z,99300.97
2022-07-26T13:57:57.180Z,99296.22
2022-07-26T14:00:27.892Z,99302.47
2022-07-26T14:02:57.004Z,99297.69
2022-07-26T14:05:24.098Z,99288.56
2022-07-26T14:07:55.036Z,99282.88
2022-07-26T14:10:23.037Z,99287.97
2022-07-26T14:12:50.137Z,99290.78
2022-07-26T14:15:22.187Z,99279.69
2022-07-26T14:17:50.976Z,99282.59
2022-07-26T14:20:18.357Z,99273.16
2022-07-26T14:22:45.336Z,99278.09
2022-07-26T14:25:12.010Z,99269.22
2022-07-26T14:27:39.093Z,99272.44
2022-07-26T14:30:06.554Z,99260.63
2022-07-26T14:32:33.363Z,99282.66
2022-07-26T14:34:59.821Z,99281.25
2022-07-26T14:37:42.813Z,99278.94
2022-07-26T14:40:15.855Z,99274.38
2022-07-26T14:42:42.765Z,99278.06
2022-07-26T14:45:10.077Z,99272.78
2022-07-26T14:47:38.132Z,99276.78
2022-07-26T14:50:07.580Z,99276.13
2022-07-26T14:52:38.008Z,99269.28
2022-07-26T14:55:05.595Z,99263.38
2022-07-26T14:57:32.285Z,99259.19
2022-07-26T14:59:59.215Z,99258.34
2022-07-26T15:02:26.042Z,99257.97
2022-07-26T15:04:52.618Z,99270.72
2022-07-26T15:07:19.357Z,99268.03
2022-07-26T15:09:45.781Z,99266.84
2022-07-26T15:12:12.457Z,99261.38
2022-07-26T15:14:39.180Z,99263.41
2022-07-26T15:17:05.786Z,99257.34
2022-07-26T15:19:32.326Z,99244.47
2022-07-26T15:22:02.145Z,99237.47
2022-07-26T15:24:28.973Z,99238.91
2022-07-26T15:26:56.731Z,99236.41
2022-07-26T15:29:23.218Z,99243.06
2022-07-26T15:31:50.511Z,99237.78
2022-07-26T15:34:17.119Z,99231.91
2022-07-26T15:36:43.793Z,99233.88
2022-07-26T15:39:18.350Z,99234.81
2022-07-26T15:41:47.236Z,99234.34
2022-07-26T15:44:17.187Z,99232.31
2022-07-26T15:46:45.775Z,99225.50
2022-07-26T15:49:15.767Z,99230.16
2022-07-26T15:51:43.232Z,99227.31
2022-07-26T15:54:15.405Z,99220.25
2022-07-26T15:56:43.073Z,99214.75
2022-07-26T15:59:09.645Z,99225.03
2022-07-26T16:01:36.873Z,99225.94
2022-07-26T16:04:05.183Z,99230.09
2022-07-26T16:06:33.165Z,99234.41
2022-07-26T16:09:18.984Z,99236.69
2022-07-26T16:11:46.361Z,99248.22
2022-07-26T16:14:12.908Z,99261.97
2022-07-26T16:16:39.529Z,99268.53
2022-07-26T16:19:07.413Z,99270.31
2022-07-26T16:21:34.054Z,99287.38
2022-07-26T16:24:06.483Z,99279.28
2022-07-26T16:26:33.434Z,99277.06
2022-07-26T16:29:00.640Z,99293.25
2022-07-26T16:31:27.197Z,99288.22
2022-07-26T16:33:53.810Z,99285.28
2022-07-26T16:36:20.262Z,99294.94
2022-07-26T16:38:46.901Z,99286.13
2022-07-26T16:41:13.598Z,99285.69
2022-07-26T16:43:41.438Z,99280.88
2022-07-26T16:46:07.939Z,99273.47
2022-07-26T16:48:34.661Z,99269.69
2022-07-26T16:51:01.339Z,99273.19
2022-07-26T16:53:28.113Z,99277.91
2022-07-26T16:55:54.804Z,99270.47
2022-07-26T16:58:22.668Z,99269.25
2022-07-26T17:00:49.358Z,99275.41
2022-07-26T17:03:16.210Z,99261.75
2022-07-26T17:05:44.474Z,99286.28
2022-07-26T17:08:11.352Z,99281.00
2022-07-26T17:10:38.523Z,99284.63
2022-07-26T17:13:05.272Z,99302.94
2022-07-26T17:15:31.760Z,99287.09
2022-07-26T17:17:58.288Z,99292.09
2022-07-26T17:20:24.988Z,99289.63
2022-07-26T17:22:51.561Z,99301.66
2022-07-26T17:25:18.082Z,99301.84
2022-07-26T17:27:45.898Z,99299.03
2022-07-26T17:30:12.748Z,99297.19
2022-07-26T17:32:39.450Z,99304.75
2022-07-26T17:35:07.239Z,99303.91
2022-07-26T17:37:34.970Z,99300.84
2022-07-26T17:40:02.052Z,99296.63
2022-07-26T17:42:30.440Z,99311.50
2022-07-26T17:44:57.407Z,99305.22
2022-07-26T17:47:28.822Z,99309.41
2022-07-26T17:52:50.436Z,99313.13
2022-07-26T17:55:18.993Z,99313.13
2022-07-26T17:57:47.513Z,99313.47
2022-07-26T18:00:16.652Z,99318.13
2022-07-26T18:02:43.222Z,99311.81
2022-07-26T18:05:11.127Z,99315.63
2022-07-26T18:07:39.468Z,99318.28
2022-07-26T18:10:06.668Z,99315.56
2022-07-26T18:12:33.295Z,99320.41
2022-07-26T18:14:59.957Z,99326.94
2022-07-26T18:17:26.620Z,99316.25
2022-07-26T18:19:53.326Z,99316.06
2022-07-26T18:22:19.853Z,99311.88
2022-07-26T18:24:46.644Z,99319.63
2022-07-26T18:27:13.216Z,99317.53
2022-07-26T18:29:39.925Z,99314.16
2022-07-26T18:32:06.655Z,99315.56
2022-07-26T18:34:33.194Z,99314.31
2022-07-26T18:36:59.863Z,99318.22
2022-07-26T18:39:32.800Z,99324.72
2022-07-26T18:42:00.647Z,99329.25
2022-07-26T18:44:27.276Z,99317.69
2022-07-26T18:46:56.100Z,99330.25
2022-07-26T18:49:23.494Z,99325.06
2022-07-26T18:51:57.294Z,99326.75
2022-07-26T18:54:25.047Z,99322.16
2022-07-26T18:56:51.671Z,99318.97
2022-07-26T18:59:18.522Z,99321.25
2022-07-26T19:01:45.098Z,99328.59
2022-07-26T19:04:11.768Z,99336.28
2022-07-26T19:06:39.874Z,99332.88
2022-07-26T19:09:06.622Z,99340.41
2022-07-26T19:11:33.452Z,99342.13
2022-07-26T19:14:04.438Z,99343.56
2022-07-26T19:16:31.153Z,99347.72
2022-07-26T19:18:57.823Z,99350.19
2022-07-26T19:21:25.455Z,99351.22
2022-07-26T19:23:52.062Z,99368.41
2022-07-26T19:26:18.946Z,99362.28
2022-07-26T19:28:45.563Z,99361.22
2022-07-26T19:31:12.235Z,99373.75
2022-07-26T19:33:38.879Z,99371.38
2022-07-26T19:36:05.582Z,99374.97
2022-07-26T19:38:33.322Z,99371.22
2022-07-26T19:41:01.796Z,99374.69
2022-07-26T19:43:28.936Z,99375.16
2022-07-26T19:45:56.023Z,99387.44
2022-07-26T19:48:22.774Z,99387.38
2022-07-26T19:50:51.086Z,99383.59
2022-07-26T19:53:17.880Z,99387.75
2022-07-26T19:55:44.437Z,99386.44
2022-07-26T19:58:12.196Z,99392.25
2022-07-26T20:00:38.922Z,99386.88
2022-07-26T20:03:05.537Z,99395.16
2022-07-26T20:05:32.152Z,99397.25
2022-07-26T20:07:59.982Z,99392.44
2022-07-26T20:10:31.796Z,99394.34
2022-07-26T20:12:59.266Z,99394.72
2022-07-26T20:15:26.109Z,99405.75
2022-07-26T20:17:52.635Z,99403.78
2022-07-26T20:20:20.783Z,99407.94
2022-07-26T20:22:47.291Z,99415.84
2022-07-26T20:25:18.033Z,99416.47
2022-07-26T20:27:49.949Z,99406.97
2022-07-26T20:30:17.144Z,99399.75
2022-07-26T20:32:43.970Z,99405.75
2022-07-26T20:35:10.781Z,99408.66
2022-07-26T20:37:37.593Z,99408.47
2022-07-26T20:40:04.919Z,99425.19
2022-07-26T20:42:33.633Z,99420.50
2022-07-26T20:45:01.149Z,99421.75
2022-07-26T20:47:27.739Z,99425.00
2022-07-26T20:49:57.279Z,99428.25
2022-07-26T20:52:26.183Z,99424.25
2022-07-26T20:54:52.807Z,99423.97
2022-07-26T20:57:22.536Z,99424.53
2022-07-26T20:59:49.708Z,99433.69
2022-07-26T21:02:18.780Z,99443.72
2022-07-26T21:04:45.866Z,99432.41
2022-07-26T21:07:12.812Z,99441.00
2022-07-26T21:09:39.654Z,99446.25
2022-07-26T21:12:06.678Z,99443.34
2022-07-26T21:14:33.169Z,99451.50
2022-07-26T21:16:59.957Z,99445.69
2022-07-26T21:19:26.518Z,99455.69
2022-07-26T21:21:56.973Z,99450.25
2022-07-26T21:24:23.424Z,99456.19
2022-07-26T21:26:50.157Z,99442.97
2022-07-26T21:29:16.651Z,99443.91
2022-07-26T21:31:43.161Z,99450.19
2022-07-26T21:34:10.191Z,99452.22
2022-07-26T21:36:40.221Z,99455.81
2022-07-26T21:39:07.741Z,99457.97
2022-07-26T21:41:34.772Z,99454.84
2022-07-26T21:44:01.419Z,99457.78
2022-07-26T21:46:28.131Z,99449.91
2022-07-26T21:48:54.820Z,99454.59
2022-07-26T21:51:21.906Z,99466.34
2022-07-26T21:53:48.526Z,99455.78
2022-07-26T21:56:15.841Z,99465.72
2022-07-26T21:58:42.392Z,99460.75
2022-07-26T22:01:12.503Z,99463.47
2022-07-26T22:03:40.646Z,99464.31
2022-07-26T22:06:08.889Z,99463.47
2022-07-26T22:08:36.023Z,99464.22
2022-07-26T22:11:02.662Z,99473.19
2022-07-26T22:13:30.613Z,99480.78
2022-07-26T22:15:57.119Z,99475.19
2022-07-26T22:18:23.833Z,99483.31
2022-07-26T22:20:50.458Z,99479.63
2022-07-26T22:23:18.668Z,99478.53
2022-07-26T22:25:45.668Z,99484.81
2022-07-26T22:28:18.348Z,99480.38
2022-07-26T22:30:46.572Z,99483.50
2022-07-26T22:33:13.040Z,99483.41
2022-07-26T22:35:39.732Z,99481.06
2022-07-26T22:38:11.237Z,99480.38
2022-07-26T22:40:39.478Z,99486.22
2022-07-26T22:43:06.894Z,99487.31
2022-07-26T22:45:33.766Z,99485.06
2022-07-26T22:48:02.428Z,99483.09
2022-07-26T22:50:29.098Z,99489.72
2022-07-26T22:52:56.776Z,99483.81
2022-07-26T22:55:24.098Z,99492.25
2022-07-26T22:57:50.578Z,99489.06
2022-07-26T23:00:18.665Z,99480.09
2022-07-26T23:02:45.430Z,99485.22
2022-07-26T23:05:14.858Z,99487.47
2022-07-26T23:07:41.548Z,99487.28
2022-07-26T23:10:11.524Z,99492.31
2022-07-26T23:12:38.349Z,99491.31
2022-07-26T23:15:05.832Z,99491.97
2022-07-26T23:17:32.316Z,99491.84
2022-07-26T23:19:58.810Z,99490.91
2022-07-26T23:22:25.398Z,99492.25
2022-07-26T23:24:51.894Z,99494.25
2022-07-26T23:27:20.342Z,99491.19
2022-07-26T23:29:48.290Z,99495.16
2022-07-26T23:32:15.872Z,99494.50
2022-07-26T23:34:42.677Z,99492.44
2022-07-26T23:37:09.316Z,99494.50
2022-07-26T23:39:35.930Z,99490.47
2022-07-26T23:42:02.941Z,99486.50
2022-07-26T23:44:30.878Z,99490.00
2022-07-26T23:46:58.178Z,99485.94
2022-07-26T23:49:25.531Z,99495.44
2022-07-26T23:51:52.115Z,99491.34
2022-07-26T23:54:18.798Z,99494.31
2022-07-26T23:56:45.577Z,99493.91
2022-07-26T23:59:12.989Z,99497.72
